»·PEaware :: N1016S L88-KSBP

N1016S :: L88-KSBP

FLIGHT INFORMATION

Flight Status: Arrived
Operator: Privately registered:
United States
More flights under this callsign
Pilot: Philip R. (31433)
Aircraft: CESSNA 172 SKYHAWK
(C172)
More flights by this aircraft type
Origin: L88 New Cuyama
United States
Destination: KSBP San Luis Co Regl
United States
More flights between these airports :: More routes between these airports
Route: FLW MQO
File this flight plan on PilotEdge
Remarks:
Altitude:
(Current/Filed)
6,000ft
Speed:
(Current/Filed)
90kts
Departed: 08-Jan-21 04:13 PM
Arrived: 08-Jan-21 05:00 PM
Distance/Time
Traveled:
50nm/0:47
Distance/Time
To Go:
Arrived

Flight Plot

Page will automatically refresh every two minutes.

Flight plan parsing failed; only flown route is shown


Map Options




Map Legend


Flown Route
Filed Route
Departure Airport
Arrival Airport
Navaid (VOR, NDB)
Fix

Horizontal Profiles

Position Reports

Time Latitude Longitude Heading Altitude Ground
Speed
08-Jan-21 15:36 34.942992 -119.690808 336 2151ft 0kts
08-Jan-21 15:37 34.942992 -119.690808 336 2151ft 0kts
08-Jan-21 15:38 34.942992 -119.690808 336 2151ft 0kts
08-Jan-21 15:39 34.942992 -119.690808 336 2151ft 0kts
08-Jan-21 15:40 34.942992 -119.690808 336 2151ft 0kts
08-Jan-21 15:41 34.942992 -119.690808 336 2151ft 0kts
08-Jan-21 15:42 34.942992 -119.690808 336 2151ft 0kts
08-Jan-21 15:43 34.942992 -119.690808 336 2151ft 0kts
08-Jan-21 15:44 34.942992 -119.690808 336 2151ft 0kts
08-Jan-21 15:45 34.942992 -119.690808 336 2151ft 0kts
08-Jan-21 15:46 34.942992 -119.690808 336 2151ft 0kts
08-Jan-21 15:47 34.942992 -119.690808 336 2151ft 0kts
08-Jan-21 15:48 34.942992 -119.690808 336 2151ft 0kts
08-Jan-21 15:49 34.942992 -119.690808 336 2151ft 0kts
08-Jan-21 15:50 34.942992 -119.690808 336 2151ft 0kts
08-Jan-21 15:51 34.942992 -119.690808 336 2151ft 0kts
08-Jan-21 15:52 34.942992 -119.690808 336 2151ft 0kts
08-Jan-21 15:53 34.942992 -119.690808 336 2151ft 0kts
08-Jan-21 15:54 34.942992 -119.690808 336 2151ft 0kts
08-Jan-21 15:55 34.942992 -119.690808 336 2151ft 0kts
08-Jan-21 15:56 34.942992 -119.690808 336 2151ft 0kts
08-Jan-21 15:57 34.942992 -119.690808 336 2151ft 0kts
08-Jan-21 15:59 34.942992 -119.690808 336 2151ft 0kts
08-Jan-21 16:00 34.942992 -119.690808 336 2151ft 0kts
08-Jan-21 16:01 34.942992 -119.690808 336 2151ft 0kts
08-Jan-21 16:02 34.942992 -119.690808 336 2151ft 0kts
08-Jan-21 16:03 34.942992 -119.690808 336 2151ft 0kts
08-Jan-21 16:04 34.942992 -119.690808 336 2151ft 0kts
08-Jan-21 16:05 34.942958 -119.690790 335 2151ft 2kts
08-Jan-21 16:06 34.942540 -119.690854 195 2151ft 0kts
08-Jan-21 16:07 34.942540 -119.690854 195 2151ft 0kts
08-Jan-21 16:08 34.942540 -119.690854 195 2151ft 0kts
08-Jan-21 16:09 34.942540 -119.690854 195 2151ft 0kts
08-Jan-21 16:09 34.942541 -119.690854 195 2151ft 0kts
08-Jan-21 16:10 34.942541 -119.690854 195 2151ft 0kts
08-Jan-21 16:12 34.942302 -119.691311 105 2150ft 0kts
08-Jan-21 16:13 34.936401 -119.677477 119 2400ft 66kts
08-Jan-21 16:14 34.930315 -119.657792 145 2812ft 62kts
08-Jan-21 16:14 34.922264 -119.670262 283 3108ft 60kts
08-Jan-21 16:16 34.934043 -119.692704 312 3621ft 69kts
08-Jan-21 16:16 34.944576 -119.706786 309 4032ft 68kts
08-Jan-21 16:17 34.956500 -119.725067 311 4500ft 69kts
08-Jan-21 16:18 34.969471 -119.743280 316 4957ft 72kts
08-Jan-21 16:19 34.982880 -119.760034 325 5421ft 68kts
08-Jan-21 16:20 34.996443 -119.775605 303 5825ft 66kts
08-Jan-21 16:21 35.005650 -119.796196 320 6182ft 64kts
08-Jan-21 16:22 35.020176 -119.808686 320 6527ft 62kts
08-Jan-21 16:23 35.035586 -119.816510 354 6835ft 61kts
08-Jan-21 16:24 35.052651 -119.817592 358 6992ft 58kts
08-Jan-21 16:25 35.067862 -119.820487 357 7258ft 52kts
08-Jan-21 16:26 35.084469 -119.824179 307 7528ft 61kts
08-Jan-21 16:27 35.083797 -119.851863 274 7521ft 97kts
08-Jan-21 16:28 35.085440 -119.882757 277 7393ft 86kts
08-Jan-21 16:29 35.083280 -119.912507 266 7140ft 92kts
08-Jan-21 16:30 35.079298 -119.942651 270 7107ft 84kts
08-Jan-21 16:31 35.080312 -119.970048 291 7062ft 79kts
08-Jan-21 16:32 35.087975 -119.994906 309 7031ft 75kts
08-Jan-21 16:33 35.097550 -120.019234 306 6903ft 78kts
08-Jan-21 16:34 35.108835 -120.040436 312 6923ft 64kts
08-Jan-21 16:35 35.116287 -120.059587 281 6919ft 71kts
08-Jan-21 16:36 35.119114 -120.083809 289 7008ft 74kts
08-Jan-21 16:37 35.121742 -120.108822 292 7204ft 72kts
08-Jan-21 16:38 35.124594 -120.132824 289 7497ft 69kts
08-Jan-21 16:39 35.129387 -120.157795 292 7447ft 80kts
08-Jan-21 16:40 35.133671 -120.183735 293 7320ft 74kts
08-Jan-21 16:41 35.140552 -120.207674 300 7136ft 75kts
08-Jan-21 16:42 35.146656 -120.231124 300 6983ft 66kts
08-Jan-21 16:43 35.149364 -120.253918 274 6844ft 75kts
08-Jan-21 16:44 35.145492 -120.278307 267 6749ft 70kts
08-Jan-21 16:45 35.143599 -120.302067 278 6842ft 72kts
08-Jan-21 16:46 35.146300 -120.326711 292 7010ft 75kts
08-Jan-21 16:47 35.152646 -120.350000 300 7271ft 71kts
08-Jan-21 16:48 35.155448 -120.374158 278 7137ft 71kts
08-Jan-21 16:49 35.153830 -120.397988 277 6894ft 70kts
08-Jan-21 16:50 35.152162 -120.422491 274 6623ft 77kts
08-Jan-21 16:51 35.147473 -120.449703 265 6116ft 91kts
08-Jan-21 16:52 35.146002 -120.480676 284 5465ft 88kts
08-Jan-21 16:53 35.154697 -120.506411 313 5058ft 75kts
08-Jan-21 16:54 35.167667 -120.525798 314 4632ft 76kts
08-Jan-21 16:55 35.181938 -120.546295 315 4152ft 83kts
08-Jan-21 16:56 35.197340 -120.571871 312 3360ft 101kts
08-Jan-21 16:57 35.213701 -120.599531 316 2106ft 100kts
08-Jan-21 16:58 35.229854 -120.628033 300 480ft 93kts
08-Jan-21 16:59 35.238858 -120.643654 303 183ft 23kts
08-Jan-21 17:00 35.239813 -120.644039 35 181ft 0kts
08-Jan-21 17:01 35.239861 -120.643634 110 182ft 10kts
08-Jan-21 17:02 35.236852 -120.638298 123 199ft 22kts
08-Jan-21 17:03 35.236224 -120.636222 32 204ft 0kts

Navigation Log

Ident Type
Flight plan parsing failed, navigation log unavailable